Time;durP1;ratioP1;P1;durP2;ratioP2;P2;SDS_P1;SDS_P2;PMS_P1;PMS_P2;Temp;Humidity;BMP_temperature;BMP_pressure;BME280_temperature;BME280_humidity;BME280_pressure;Samples;Min_cycle;Max_cycle;Signal;HPM_P1;HPM_P2
2021/12/13 00:00:15;;;;;;;35.90;21.13;;;;;;;;;;5089991;28;20634;-90
2021/12/13 00:02:46;;;;;;;37.40;21.80;;;;;;;;;;5069547;28;20028;-82
2021/12/13 00:05:28;;;;;;;39.95;21.20;;;;;;;;;;5073044;28;20070;-85
2021/12/13 00:08:00;;;;;;;38.13;21.65;;;;;;;;;;5071074;28;20078;-83
2021/12/13 00:10:34;;;;;;;38.75;22.90;;;;;;;;;;5078664;28;20395;-89
2021/12/13 00:13:06;;;;;;;37.88;22.55;;;;;;;;;;5087361;28;20062;-88
2021/12/13 00:15:38;;;;;;;37.03;23.13;;;;;;;;;;5085289;28;20024;-85
2021/12/13 00:18:07;;;;;;;44.60;23.90;;;;;;;;;;5085269;28;20028;-82
2021/12/13 00:20:45;;;;;;;38.85;24.00;;;;;;;;;;5109457;28;20074;-82
2021/12/13 00:23:21;;;;;;;39.72;22.58;;;;;;;;;;5084867;28;20053;-90
2021/12/13 00:25:49;;;;;;;37.55;23.70;;;;;;;;;;5089555;28;20073;-91
2021/12/13 00:28:18;;;;;;;39.65;23.52;;;;;;;;;;5089310;28;20399;-82
2021/12/13 00:31:01;;;;;;;41.67;24.13;;;;;;;;;;5092318;28;20054;-83
2021/12/13 00:33:42;;;;;;;39.90;23.67;;;;;;;;;;5093360;28;20149;-81
2021/12/13 00:36:16;;;;;;;37.58;22.55;;;;;;;;;;5089918;28;20074;-82
2021/12/13 00:38:46;;;;;;;33.42;21.45;;;;;;;;;;5107925;28;20036;-85
2021/12/13 00:41:16;;;;;;;38.97;23.20;;;;;;;;;;5090983;28;22413;-81
2021/12/13 00:43:59;;;;;;;36.97;22.02;;;;;;;;;;5088776;28;20027;-85
2021/12/13 00:46:25;;;;;;;36.70;22.58;;;;;;;;;;5091364;28;20016;-81
2021/12/13 00:48:54;;;;;;;36.58;23.30;;;;;;;;;;5089897;28;20368;-81
2021/12/13 00:51:32;;;;;;;40.10;22.95;;;;;;;;;;5087390;28;20035;-81
2021/12/13 00:54:03;;;;;;;40.45;22.40;;;;;;;;;;5087377;28;20544;-82
2021/12/13 00:57:03;;;;;;;38.70;22.92;;;;;;;;;;5089032;28;20498;-83
2021/12/13 00:59:36;;;;;;;39.90;23.13;;;;;;;;;;5087597;28;20112;-82
2021/12/13 01:02:10;;;;;;;39.33;23.77;;;;;;;;;;5088739;28;20024;-82
2021/12/13 01:05:00;;;;;;;41.58;24.30;;;;;;;;;;5095377;28;20479;-81
2021/12/13 01:08:03;;;;;;;38.25;23.77;;;;;;;;;;5087687;28;20475;-83
2021/12/13 01:10:48;;;;;;;43.22;23.77;;;;;;;;;;5095752;28;20128;-85
2021/12/13 01:13:22;;;;;;;38.55;24.20;;;;;;;;;;5078480;28;20040;-82
2021/12/13 01:15:56;;;;;;;36.05;23.02;;;;;;;;;;5090862;28;20058;-90
2021/12/13 01:18:32;;;;;;;38.45;24.02;;;;;;;;;;5088374;28;20490;-85
2021/12/13 01:21:39;;;;;;;39.22;24.08;;;;;;;;;;5086341;28;21836;-81
2021/12/13 01:24:10;;;;;;;39.15;23.35;;;;;;;;;;5085858;28;20091;-82
2021/12/13 01:26:45;;;;;;;34.90;21.63;;;;;;;;;;5106812;28;20020;-90
2021/12/13 01:29:22;;;;;;;37.30;22.48;;;;;;;;;;5086918;28;20013;-89
2021/12/13 01:31:55;;;;;;;37.85;22.27;;;;;;;;;;5086835;28;20024;-85
2021/12/13 01:34:23;;;;;;;39.17;22.90;;;;;;;;;;5088309;28;20039;-91
2021/12/13 01:37:07;;;;;;;34.50;21.13;;;;;;;;;;5086773;28;20055;-85
2021/12/13 01:39:35;;;;;;;37.03;21.20;;;;;;;;;;5092375;28;20402;-86
2021/12/13 01:42:28;;;;;;;34.88;20.35;;;;;;;;;;5090256;28;20122;-82
2021/12/13 01:44:58;;;;;;;36.30;21.10;;;;;;;;;;5083488;28;20024;-82
2021/12/13 01:47:30;;;;;;;33.92;21.05;;;;;;;;;;5085897;28;20032;-88
2021/12/13 01:50:14;;;;;;;33.40;21.45;;;;;;;;;;5105039;28;20036;-82
2021/12/13 01:52:41;;;;;;;32.80;19.77;;;;;;;;;;5088381;28;20032;-81
2021/12/13 01:55:22;;;;;;;34.13;21.02;;;;;;;;;;5085178;28;20514;-82
2021/12/13 01:57:54;;;;;;;31.10;19.92;;;;;;;;;;5083738;28;20103;-82
2021/12/13 02:01:09;;;;;;;29.38;19.58;;;;;;;;;;5083146;28;20039;-82
2021/12/13 02:03:43;;;;;;;27.52;18.02;;;;;;;;;;5087557;28;20504;-86
2021/12/13 02:06:09;;;;;;;28.58;17.83;;;;;;;;;;5085927;28;20020;-87
2021/12/13 02:08:36;;;;;;;28.45;18.00;;;;;;;;;;5087490;28;20123;-83
2021/12/13 02:11:03;;;;;;;29.98;18.00;;;;;;;;;;5085343;28;20047;-81
2021/12/13 02:13:38;;;;;;;28.48;17.33;;;;;;;;;;5087080;28;20097;-82
2021/12/13 02:19:19;;;;;;;26.17;16.15;;;;;;;;;;5045661;28;20054;-85
2021/12/13 02:21:50;;;;;;;24.15;16.05;;;;;;;;;;5031727;28;20049;-91
2021/12/13 02:24:16;;;;;;;23.27;15.82;;;;;;;;;;5062403;28;20090;-90
2021/12/13 02:26:46;;;;;;;23.70;15.55;;;;;;;;;;5088961;28;20028;-90
2021/12/13 02:29:34;;;;;;;26.83;16.63;;;;;;;;;;5089476;28;20036;-86
2021/12/13 02:32:00;;;;;;;23.23;14.48;;;;;;;;;;5085917;28;20081;-85
2021/12/13 02:34:29;;;;;;;24.73;16.63;;;;;;;;;;5088987;28;20122;-90
2021/12/13 02:36:55;;;;;;;22.42;14.43;;;;;;;;;;5088452;28;20119;-85
2021/12/13 02:39:26;;;;;;;22.33;14.55;;;;;;;;;;5083587;28;20088;-82
2021/12/13 02:41:53;;;;;;;21.80;14.88;;;;;;;;;;5084177;28;20380;-81
2021/12/13 02:44:27;;;;;;;24.20;15.70;;;;;;;;;;5086204;28;20024;-82
2021/12/13 02:46:57;;;;;;;21.13;14.32;;;;;;;;;;5088108;28;20054;-81
2021/12/13 02:49:22;;;;;;;22.77;15.68;;;;;;;;;;5087844;28;20020;-85
2021/12/13 02:51:55;;;;;;;20.60;14.48;;;;;;;;;;5090960;28;20032;-90
2021/12/13 02:54:23;;;;;;;;;;;;;;;;;;5082494;28;20030;-92
2021/12/13 02:57:11;;;;;;;25.38;14.13;;;;;;;;;;5087490;28;19919;-83
2021/12/13 02:59:42;;;;;;;20.77;14.57;;;;;;;;;;5081918;28;20399;-90
2021/12/13 03:02:13;;;;;;;22.95;14.88;;;;;;;;;;5086504;28;20020;-83
2021/12/13 03:04:39;;;;;;;21.45;14.07;;;;;;;;;;5085027;28;20020;-82
2021/12/13 03:07:15;;;;;;;22.73;14.65;;;;;;;;;;5088997;28;20031;-85
2021/12/13 03:09:44;;;;;;;23.00;14.70;;;;;;;;;;5087866;28;20028;-84
2021/12/13 03:12:14;;;;;;;21.33;14.35;;;;;;;;;;5087392;28;21675;-81
2021/12/13 03:14:45;;;;;;;21.60;13.98;;;;;;;;;;5103312;28;20431;-90
2021/12/13 03:17:25;;;;;;;21.75;14.68;;;;;;;;;;5085268;28;20028;-89
2021/12/13 03:20:25;;;;;;;21.80;14.48;;;;;;;;;;5103723;28;20028;-82
2021/12/13 03:23:15;;;;;;;22.77;14.38;;;;;;;;;;5064270;28;20487;-85
2021/12/13 03:25:58;;;;;;;26.50;16.08;;;;;;;;;;5083817;28;20028;-85
2021/12/13 03:28:51;;;;;;;23.50;15.55;;;;;;;;;;5088044;28;20039;-85
2021/12/13 03:31:24;;;;;;;21.27;14.80;;;;;;;;;;5086423;28;20032;-85
2021/12/13 03:34:22;;;;;;;25.85;15.80;;;;;;;;;;5086992;28;20047;-88
2021/12/13 03:36:58;;;;;;;28.45;16.15;;;;;;;;;;5053783;28;20036;-85
2021/12/13 03:39:34;;;;;;;25.70;16.55;;;;;;;;;;5088034;28;20131;-82
2021/12/13 03:42:05;;;;;;;26.92;16.08;;;;;;;;;;5084178;28;20394;-85
2021/12/13 03:44:46;;;;;;;27.00;15.90;;;;;;;;;;5081933;28;20032;-90
2021/12/13 03:47:36;;;;;;;28.90;16.33;;;;;;;;;;5086231;28;20028;-82
2021/12/13 03:50:08;;;;;;;29.33;16.17;;;;;;;;;;5090542;28;20391;-82
2021/12/13 03:52:38;;;;;;;28.13;15.80;;;;;;;;;;5089366;28;20031;-89
2021/12/13 03:55:05;;;;;;;28.50;16.88;;;;;;;;;;5088302;28;20115;-83
2021/12/13 03:57:31;;;;;;;27.10;17.00;;;;;;;;;;5091692;28;20028;-85
2021/12/13 03:59:59;;;;;;;30.05;16.73;;;;;;;;;;5088962;28;20036;-83
2021/12/13 04:02:31;;;;;;;32.45;17.85;;;;;;;;;;5096153;28;20019;-89
2021/12/13 04:05:00;;;;;;;30.95;16.33;;;;;;;;;;5089741;28;20028;-82
2021/12/13 04:07:30;;;;;;;28.42;16.50;;;;;;;;;;5085670;28;20041;-85
2021/12/13 04:09:59;;;;;;;28.35;16.15;;;;;;;;;;5089276;28;20360;-83
2021/12/13 04:12:38;;;;;;;32.05;18.40;;;;;;;;;;5067208;28;20028;-81
2021/12/13 04:15:38;;;;;;;33.35;18.00;;;;;;;;;;5088678;28;20028;-85
2021/12/13 04:18:15;;;;;;;31.02;16.80;;;;;;;;;;5066857;28;20044;-82
2021/12/13 04:20:43;;;;;;;30.27;17.00;;;;;;;;;;5092598;28;20020;-85
2021/12/13 04:23:21;;;;;;;31.38;17.65;;;;;;;;;;5091303;28;20048;-90
2021/12/13 04:25:50;;;;;;;29.10;16.98;;;;;;;;;;5089070;28;20479;-81
2021/12/13 04:28:32;;;;;;;32.55;18.42;;;;;;;;;;5066995;28;20090;-83
2021/12/13 04:31:04;;;;;;;30.70;16.85;;;;;;;;;;5088439;28;20063;-83
2021/12/13 04:33:51;;;;;;;30.10;17.98;;;;;;;;;;5070499;28;20024;-83
2021/12/13 04:36:25;;;;;;;30.65;17.95;;;;;;;;;;5068990;28;20066;-81
2021/12/13 04:38:58;;;;;;;32.20;17.38;;;;;;;;;;5074672;28;20028;-85
2021/12/13 04:41:30;;;;;;;;;;;;;;;;;;5090698;28;20048;-82
2021/12/13 04:44:31;;;;;;;33.67;18.17;;;;;;;;;;5085280;28;19958;-87
2021/12/13 04:47:09;;;;;;;28.45;16.95;;;;;;;;;;5083151;28;20054;-84
2021/12/13 04:49:37;;;;;;;29.20;16.35;;;;;;;;;;5072457;28;20502;-83
2021/12/13 04:52:11;;;;;;;32.67;17.60;;;;;;;;;;5067866;28;20024;-83
2021/12/13 04:54:40;;;;;;;30.48;17.65;;;;;;;;;;5070732;28;20035;-89
2021/12/13 04:57:06;;;;;;;32.53;16.92;;;;;;;;;;5075306;28;20028;-82
2021/12/13 04:59:33;;;;;;;28.85;17.35;;;;;;;;;;5069752;28;20028;-82
2021/12/13 05:02:04;;;;;;;28.90;17.02;;;;;;;;;;5086912;28;20023;-85
2021/12/13 05:04:29;;;;;;;28.67;16.38;;;;;;;;;;5076628;28;20047;-81
2021/12/13 05:06:57;;;;;;;30.90;17.60;;;;;;;;;;5086924;28;20051;-81
2021/12/13 05:09:24;;;;;;;29.67;16.65;;;;;;;;;;5080922;28;20043;-85
2021/12/13 05:12:13;;;;;;;30.63;16.77;;;;;;;;;;5074369;28;20047;-85
2021/12/13 05:14:44;;;;;;;27.33;16.02;;;;;;;;;;5074985;28;20082;-82
2021/12/13 05:17:15;;;;;;;30.85;15.95;;;;;;;;;;5067645;28;20024;-89
2021/12/13 05:19:46;;;;;;;30.45;16.77;;;;;;;;;;5098138;28;20019;-83
2021/12/13 05:22:14;;;;;;;29.88;16.75;;;;;;;;;;5074537;28;20467;-90
2021/12/13 05:24:50;;;;;;;32.80;17.25;;;;;;;;;;5073316;28;20024;-84
2021/12/13 05:27:25;;;;;;;28.90;16.27;;;;;;;;;;5073243;28;20378;-82
2021/12/13 05:29:52;;;;;;;28.73;15.98;;;;;;;;;;5072524;28;20030;-81
2021/12/13 05:32:32;;;;;;;30.58;15.82;;;;;;;;;;5088156;28;20594;-82
2021/12/13 05:35:08;;;;;;;28.13;15.68;;;;;;;;;;5075804;28;20024;-91
2021/12/13 05:37:53;;;;;;;29.40;16.00;;;;;;;;;;5090438;28;20020;-81
2021/12/13 05:40:24;;;;;;;28.63;16.25;;;;;;;;;;5069284;28;20039;-81
2021/12/13 05:42:54;;;;;;;29.85;16.15;;;;;;;;;;5071831;28;20029;-85
2021/12/13 05:45:39;;;;;;;27.58;14.88;;;;;;;;;;5082336;28;20096;-85
2021/12/13 05:48:12;;;;;;;26.63;15.23;;;;;;;;;;5071094;28;20116;-82
2021/12/13 05:50:42;;;;;;;31.00;16.48;;;;;;;;;;5086595;28;20024;-81
2021/12/13 05:53:24;;;;;;;28.17;15.30;;;;;;;;;;5087203;28;20766;-88
2021/12/13 05:55:58;;;;;;;27.02;16.63;;;;;;;;;;5067040;28;20118;-85
2021/12/13 05:58:31;;;;;;;24.85;15.27;;;;;;;;;;5073259;28;20025;-85
2021/12/13 06:01:00;;;;;;;25.95;15.30;;;;;;;;;;5071033;28;20097;-81
2021/12/13 06:03:34;;;;;;;27.10;15.52;;;;;;;;;;5075230;28;20495;-84
2021/12/13 06:06:27;;;;;;;27.20;14.85;;;;;;;;;;5069344;28;21774;-81
2021/12/13 06:08:56;;;;;;;27.07;16.03;;;;;;;;;;5061853;28;20039;-82
2021/12/13 06:11:32;;;;;;;27.25;15.20;;;;;;;;;;5095120;28;20097;-85
2021/12/13 06:14:05;;;;;;;25.45;14.20;;;;;;;;;;5072054;28;20040;-89
2021/12/13 06:16:49;;;;;;;27.17;15.05;;;;;;;;;;5073666;28;20091;-87
2021/12/13 06:19:22;;;;;;;27.33;15.18;;;;;;;;;;5091701;28;20387;-85
2021/12/13 06:22:03;;;;;;;28.95;15.48;;;;;;;;;;5068767;28;20046;-85
2021/12/13 06:24:32;;;;;;;28.50;15.35;;;;;;;;;;5068829;28;20487;-83
2021/12/13 06:27:11;;;;;;;24.60;14.45;;;;;;;;;;5074243;28;20020;-84
2021/12/13 06:29:51;;;;;;;24.60;14.02;;;;;;;;;;5082978;28;20150;-85
2021/12/13 06:32:28;;;;;;;24.83;13.07;;;;;;;;;;5065011;28;20488;-89
2021/12/13 06:34:55;;;;;;;24.67;13.65;;;;;;;;;;5075585;28;20484;-83
2021/12/13 06:37:30;;;;;;;23.15;13.93;;;;;;;;;;5066541;28;20044;-91
2021/12/13 06:40:29;;;;;;;24.23;14.60;;;;;;;;;;5071095;28;20106;-82
2021/12/13 06:42:58;;;;;;;23.90;13.60;;;;;;;;;;5086818;28;20051;-82
2021/12/13 06:45:35;;;;;;;24.55;13.40;;;;;;;;;;5072035;28;20379;-81
2021/12/13 06:48:08;;;;;;;27.90;13.90;;;;;;;;;;5068512;28;20023;-85
2021/12/13 06:50:39;;;;;;;23.80;13.85;;;;;;;;;;5074375;28;20032;-85
2021/12/13 06:53:13;;;;;;;25.95;14.30;;;;;;;;;;5081460;28;20025;-82
2021/12/13 06:55:39;;;;;;;24.85;13.30;;;;;;;;;;5070389;28;20495;-84
2021/12/13 06:58:23;;;;;;;25.77;13.48;;;;;;;;;;5078240;28;20078;-84
2021/12/13 07:00:53;;;;;;;24.13;13.02;;;;;;;;;;5060093;28;20110;-82
2021/12/13 07:03:27;;;;;;;24.30;14.20;;;;;;;;;;5068937;28;20036;-82
2021/12/13 07:05:55;;;;;;;22.25;12.20;;;;;;;;;;5094979;28;20450;-88
2021/12/13 07:08:34;;;;;;;23.77;12.85;;;;;;;;;;5071458;28;20052;-85
2021/12/13 07:11:01;;;;;;;27.10;13.07;;;;;;;;;;5078954;28;20036;-81
2021/12/13 07:13:36;;;;;;;24.98;12.85;;;;;;;;;;5084802;28;20039;-85
2021/12/13 07:16:15;;;;;;;24.85;13.40;;;;;;;;;;5095099;28;20077;-85
2021/12/13 07:18:55;;;;;;;22.35;12.75;;;;;;;;;;5085245;28;20050;-82
2021/12/13 07:21:42;;;;;;;22.25;12.38;;;;;;;;;;5093552;28;20502;-90
2021/12/13 07:24:12;;;;;;;24.20;11.73;;;;;;;;;;5094226;28;20044;-81
2021/12/13 07:26:42;;;;;;;21.13;12.05;;;;;;;;;;5091150;28;20020;-83
2021/12/13 07:29:18;;;;;;;20.77;12.27;;;;;;;;;;5090402;28;20035;-81
2021/12/13 07:31:46;;;;;;;20.90;11.63;;;;;;;;;;5094435;28;20046;-84
2021/12/13 07:34:19;;;;;;;21.50;11.63;;;;;;;;;;5095326;28;20096;-85
2021/12/13 07:36:53;;;;;;;23.05;12.50;;;;;;;;;;5092143;28;20039;-83
2021/12/13 07:39:19;;;;;;;20.88;12.05;;;;;;;;;;5090202;28;20024;-83
2021/12/13 07:41:53;;;;;;;19.98;11.02;;;;;;;;;;5090728;28;20020;-86
2021/12/13 07:44:31;;;;;;;21.23;11.57;;;;;;;;;;5092098;28;20027;-89
2021/12/13 07:47:15;;;;;;;17.85;11.38;;;;;;;;;;5113735;28;20031;-85
2021/12/13 07:49:45;;;;;;;19.92;10.85;;;;;;;;;;5089111;28;20031;-85
2021/12/13 07:52:24;;;;;;;26.02;11.52;;;;;;;;;;5100420;28;20089;-84
2021/12/13 07:54:50;;;;;;;22.10;10.85;;;;;;;;;;5093056;28;20028;-84
2021/12/13 07:57:25;;;;;;;17.52;11.23;;;;;;;;;;5093270;28;20585;-81
2021/12/13 07:59:52;;;;;;;17.23;11.10;;;;;;;;;;5096251;28;20102;-84
2021/12/13 08:02:30;;;;;;;20.20;11.45;;;;;;;;;;5096763;28;20526;-85
2021/12/13 08:04:59;;;;;;;21.10;10.75;;;;;;;;;;5095936;28;20020;-81
2021/12/13 08:07:40;;;;;;;19.15;11.50;;;;;;;;;;5090537;28;20475;-81
2021/12/13 08:10:25;;;;;;;18.30;10.48;;;;;;;;;;5091086;28;20027;-81
2021/12/13 08:12:57;;;;;;;19.90;9.85;;;;;;;;;;5090803;28;20107;-81
2021/12/13 08:15:33;;;;;;;17.50;10.37;;;;;;;;;;5074770;28;20051;-88
2021/12/13 08:18:03;;;;;;;20.23;10.48;;;;;;;;;;5071124;28;20114;-81
2021/12/13 08:20:42;;;;;;;18.80;10.23;;;;;;;;;;5077489;28;20070;-81
2021/12/13 08:23:17;;;;;;;17.95;10.52;;;;;;;;;;5077350;28;20073;-85
2021/12/13 08:25:45;;;;;;;22.20;10.68;;;;;;;;;;5092151;28;20028;-84
2021/12/13 08:28:15;;;;;;;17.88;9.65;;;;;;;;;;5094428;28;20031;-81
2021/12/13 08:30:53;;;;;;;16.70;10.02;;;;;;;;;;5076461;28;20031;-81
2021/12/13 08:33:36;;;;;;;15.80;9.93;;;;;;;;;;5074876;28;20024;-86
2021/12/13 08:36:29;;;;;;;17.25;10.45;;;;;;;;;;5077762;28;20028;-80
2021/12/13 08:39:15;;;;;;;17.48;9.57;;;;;;;;;;5070399;28;20048;-81
2021/12/13 08:41:50;;;;;;;17.75;10.45;;;;;;;;;;5087308;28;20020;-83
2021/12/13 08:44:19;;;;;;;15.65;9.50;;;;;;;;;;5087531;28;20027;-83
2021/12/13 08:46:56;;;;;;;16.30;9.38;;;;;;;;;;5080683;28;20383;-84
2021/12/13 08:49:34;;;;;;;17.23;9.30;;;;;;;;;;5080347;28;20024;-84
2021/12/13 08:52:18;;;;;;;16.63;10.02;;;;;;;;;;5074796;28;20471;-85
2021/12/13 08:55:11;;;;;;;19.80;10.05;;;;;;;;;;5071120;28;20437;-84
2021/12/13 08:57:54;;;;;;;17.23;9.40;;;;;;;;;;5076124;28;20020;-85
2021/12/13 09:00:35;;;;;;;19.15;9.90;;;;;;;;;;5077194;28;20082;-81
2021/12/13 09:03:10;;;;;;;15.95;9.15;;;;;;;;;;5077567;28;20024;-88
2021/12/13 09:06:02;;;;;;;15.13;9.15;;;;;;;;;;5078071;28;20062;-90
2021/12/13 09:08:44;;;;;;;16.42;8.80;;;;;;;;;;5060441;28;20040;-84
2021/12/13 09:11:19;;;;;;;15.32;9.13;;;;;;;;;;5080748;28;20052;-85
2021/12/13 09:13:48;;;;;;;18.83;9.32;;;;;;;;;;5088703;28;20120;-83
2021/12/13 09:16:20;;;;;;;15.05;9.27;;;;;;;;;;5087990;28;20027;-83
2021/12/13 09:18:48;;;;;;;16.50;9.02;;;;;;;;;;5094681;28;20055;-84
2021/12/13 09:21:19;;;;;;;14.57;8.98;;;;;;;;;;5093003;28;20024;-89
2021/12/13 09:23:51;;;;;;;15.50;8.85;;;;;;;;;;5084633;28;20028;-81
2021/12/13 09:26:21;;;;;;;16.80;8.80;;;;;;;;;;5090436;28;20026;-85
2021/12/13 09:28:52;;;;;;;15.02;9.30;;;;;;;;;;5091713;28;20058;-90
2021/12/13 09:31:27;;;;;;;16.20;8.90;;;;;;;;;;5091763;28;20111;-82
2021/12/13 09:33:57;;;;;;;16.08;9.05;;;;;;;;;;5088678;28;20024;-88
2021/12/13 09:36:28;;;;;;;15.82;8.68;;;;;;;;;;5094422;28;20082;-85
2021/12/13 09:39:20;;;;;;;17.50;8.65;;;;;;;;;;5089613;28;20024;-88
2021/12/13 09:42:11;;;;;;;14.15;8.43;;;;;;;;;;5091957;28;20047;-85
2021/12/13 09:44:55;;;;;;;12.55;8.13;;;;;;;;;;5087337;28;20040;-84
2021/12/13 09:47:25;;;;;;;12.73;7.45;;;;;;;;;;5088953;28;20031;-88
2021/12/13 09:49:56;;;;;;;14.23;8.20;;;;;;;;;;5094577;28;20022;-84
2021/12/13 09:52:29;;;;;;;13.55;8.52;;;;;;;;;;5091043;28;20676;-81
2021/12/13 09:55:19;;;;;;;15.10;8.98;;;;;;;;;;5092987;28;20562;-81
2021/12/13 09:58:01;;;;;;;12.95;7.75;;;;;;;;;;5088599;28;20024;-84
2021/12/13 10:00:41;;;;;;;13.25;8.63;;;;;;;;;;5092138;28;20052;-82
2021/12/13 10:03:22;;;;;;;17.05;8.30;;;;;;;;;;5106756;28;20024;-84
2021/12/13 10:05:51;;;;;;;12.13;7.60;;;;;;;;;;5088387;28;20090;-85
2021/12/13 10:08:24;;;;;;;13.93;7.90;;;;;;;;;;5092440;28;20024;-83
2021/12/13 10:10:54;;;;;;;14.07;8.00;;;;;;;;;;5091795;28;20039;-85
2021/12/13 10:13:28;;;;;;;11.80;7.47;;;;;;;;;;5073265;28;20039;-89
2021/12/13 10:16:02;;;;;;;11.40;7.40;;;;;;;;;;5062666;28;20131;-90
2021/12/13 10:18:31;;;;;;;13.13;7.82;;;;;;;;;;5082705;28;20031;-90
2021/12/13 10:21:05;;;;;;;11.32;7.05;;;;;;;;;;5074987;28;20486;-81
2021/12/13 10:23:35;;;;;;;12.80;7.70;;;;;;;;;;5074580;28;20449;-83
2021/12/13 10:26:05;;;;;;;12.20;8.02;;;;;;;;;;5077192;28;20015;-89
2021/12/13 10:28:35;;;;;;;12.00;7.15;;;;;;;;;;5072661;28;20024;-84
2021/12/13 10:31:06;;;;;;;13.40;7.15;;;;;;;;;;5070258;28;20476;-82
2021/12/13 10:33:33;;;;;;;13.63;7.43;;;;;;;;;;5080859;28;20391;-84
2021/12/13 10:36:02;;;;;;;11.55;6.85;;;;;;;;;;5073368;28;20055;-88
2021/12/13 10:38:34;;;;;;;10.95;7.00;;;;;;;;;;5076554;28;20157;-84
2021/12/13 10:41:05;;;;;;;13.40;7.15;;;;;;;;;;5075157;28;20089;-88
2021/12/13 10:43:39;;;;;;;10.43;6.32;;;;;;;;;;5086047;28;20024;-83
2021/12/13 10:46:10;;;;;;;11.65;7.25;;;;;;;;;;5092399;28;20020;-81
2021/12/13 10:48:44;;;;;;;11.57;6.88;;;;;;;;;;5070478;28;20652;-81
2021/12/13 10:51:13;;;;;;;11.05;6.93;;;;;;;;;;5075090;28;20479;-84
2021/12/13 10:53:41;;;;;;;12.65;6.85;;;;;;;;;;5071659;28;20111;-85
2021/12/13 10:56:12;;;;;;;12.43;6.93;;;;;;;;;;5077730;28;20039;-88
2021/12/13 10:58:43;;;;;;;10.30;7.05;;;;;;;;;;5065792;28;20032;-84
2021/12/13 11:01:20;;;;;;;12.23;7.00;;;;;;;;;;5080931;28;20032;-88
2021/12/13 11:03:49;;;;;;;12.13;7.45;;;;;;;;;;5075380;28;20482;-83
2021/12/13 11:06:15;;;;;;;13.57;7.45;;;;;;;;;;5080147;28;20032;-84
2021/12/13 11:08:42;;;;;;;12.48;6.93;;;;;;;;;;5077549;28;20429;-89
2021/12/13 11:11:23;;;;;;;10.82;6.88;;;;;;;;;;5079621;28;20040;-84
2021/12/13 11:13:51;;;;;;;11.10;7.50;;;;;;;;;;5093544;28;20036;-83
2021/12/13 11:16:34;;;;;;;11.70;7.10;;;;;;;;;;5091315;28;20063;-88
2021/12/13 11:19:01;;;;;;;11.18;7.03;;;;;;;;;;5095519;28;20067;-88
2021/12/13 11:21:35;;;;;;;10.50;6.68;;;;;;;;;;5093445;28;20032;-82
2021/12/13 11:24:01;;;;;;;11.82;7.20;;;;;;;;;;5090861;28;20027;-82
2021/12/13 11:26:31;;;;;;;9.85;6.85;;;;;;;;;;5096407;28;20395;-88
2021/12/13 11:29:00;;;;;;;10.52;7.00;;;;;;;;;;5089260;28;20028;-83
2021/12/13 11:31:28;;;;;;;13.60;7.95;;;;;;;;;;5088178;28;20110;-83
2021/12/13 11:34:12;;;;;;;13.05;7.70;;;;;;;;;;5098338;28;20032;-85
2021/12/13 11:37:24;;;;;;;14.68;8.65;;;;;;;;;;5094468;28;20028;-81
2021/12/13 11:39:52;;;;;;;12.95;7.43;;;;;;;;;;5114024;28;20059;-81
2021/12/13 11:42:38;;;;;;;12.43;7.50;;;;;;;;;;5081569;28;20111;-85
2021/12/13 11:45:27;;;;;;;12.10;7.93;;;;;;;;;;5094766;28;20522;-84
2021/12/13 11:48:30;;;;;;;14.27;7.90;;;;;;;;;;5091639;28;20051;-85
2021/12/13 11:51:08;;;;;;;13.48;8.68;;;;;;;;;;5087222;28;20031;-88
2021/12/13 11:54:12;;;;;;;13.70;7.97;;;;;;;;;;5095267;28;20035;-82
2021/12/13 11:56:48;;;;;;;11.32;7.93;;;;;;;;;;5107820;28;20092;-89
2021/12/13 12:00:00;;;;;;;15.02;8.52;;;;;;;;;;5090973;28;20123;-87
2021/12/13 12:02:44;;;;;;;13.43;8.30;;;;;;;;;;5090769;28;20024;-82
2021/12/13 12:05:28;;;;;;;12.68;8.05;;;;;;;;;;5083726;28;20111;-85
2021/12/13 12:08:25;;;;;;;16.15;8.88;;;;;;;;;;5086289;28;20390;-83
2021/12/13 12:11:17;;;;;;;16.85;9.00;;;;;;;;;;5091089;28;20027;-88
2021/12/13 12:13:53;;;;;;;15.18;8.43;;;;;;;;;;5076402;28;20028;-89
2021/12/13 12:16:25;;;;;;;14.18;7.93;;;;;;;;;;5065451;28;20024;-81
2021/12/13 12:18:51;;;;;;;13.52;8.40;;;;;;;;;;5076764;28;20016;-81
2021/12/13 12:21:38;;;;;;;16.17;7.93;;;;;;;;;;5076990;28;20012;-81
2021/12/13 12:24:38;;;;;;;11.30;7.38;;;;;;;;;;5069045;28;20020;-82
2021/12/13 12:27:09;;;;;;;12.63;7.90;;;;;;;;;;5055836;28;20037;-81
2021/12/13 12:29:40;;;;;;;12.85;7.30;;;;;;;;;;5072356;28;20058;-88
2021/12/13 12:32:12;;;;;;;12.35;7.70;;;;;;;;;;5075117;28;20024;-85
2021/12/13 12:34:54;;;;;;;12.40;7.97;;;;;;;;;;5092897;28;20067;-83
2021/12/13 12:37:55;;;;;;;14.00;8.00;;;;;;;;;;5077145;28;20024;-89
2021/12/13 12:40:26;;;;;;;11.82;7.57;;;;;;;;;;5090699;28;20108;-90
2021/12/13 12:42:55;;;;;;;10.02;7.38;;;;;;;;;;5078848;28;20016;-84
2021/12/13 12:45:36;;;;;;;10.50;7.10;;;;;;;;;;5074655;28;20690;-85
2021/12/13 12:48:16;;;;;;;10.88;7.13;;;;;;;;;;5094409;28;20063;-85
2021/12/13 12:50:53;;;;;;;11.98;7.18;;;;;;;;;;5076068;28;20024;-83
2021/12/13 12:53:30;;;;;;;10.57;7.25;;;;;;;;;;5079587;28;20475;-84
2021/12/13 12:55:59;;;;;;;11.70;7.50;;;;;;;;;;5077753;28;20027;-88
2021/12/13 12:58:31;;;;;;;11.20;7.30;;;;;;;;;;5065444;28;20052;-81
2021/12/13 13:01:00;;;;;;;10.27;7.13;;;;;;;;;;5081594;28;20085;-88
2021/12/13 13:03:32;;;;;;;12.10;7.05;;;;;;;;;;5079528;28;20024;-88
2021/12/13 13:06:18;;;;;;;10.90;6.88;;;;;;;;;;5070986;28;20051;-81
2021/12/13 13:08:48;;;;;;;11.15;7.05;;;;;;;;;;5070228;28;20024;-84
2021/12/13 13:13:46;;;;;;;10.05;7.35;;;;;;;;;;5095103;28;20550;-88
2021/12/13 13:16:12;;;;;;;11.90;6.75;;;;;;;;;;5098115;28;20024;-81
2021/12/13 13:18:39;;;;;;;10.65;6.95;;;;;;;;;;5092129;28;20103;-81
2021/12/13 13:21:07;;;;;;;9.90;7.13;;;;;;;;;;5096714;28;20486;-89
2021/12/13 13:23:50;;;;;;;9.02;6.70;;;;;;;;;;5066614;28;20031;-85
2021/12/13 13:26:17;;;;;;;11.23;7.10;;;;;;;;;;5086461;28;20028;-81
2021/12/13 13:28:46;;;;;;;11.13;7.20;;;;;;;;;;5071245;28;20468;-84
2021/12/13 13:31:38;;;;;;;11.18;6.25;;;;;;;;;;5070514;28;20036;-88
2021/12/13 13:34:05;;;;;;;10.30;6.55;;;;;;;;;;5065903;28;20047;-86
2021/12/13 13:36:41;;;;;;;11.93;7.15;;;;;;;;;;5069373;28;20028;-81
2021/12/13 13:39:27;;;;;;;10.93;6.75;;;;;;;;;;5075318;28;20388;-83
2021/12/13 13:42:21;;;;;;;10.07;7.07;;;;;;;;;;5067560;28;20491;-84
2021/12/13 13:44:50;;;;;;;9.95;6.38;;;;;;;;;;5032033;28;20173;-89
2021/12/13 13:47:38;;;;;;;12.80;6.72;;;;;;;;;;5090836;28;20024;-90
2021/12/13 13:50:22;;;;;;;8.98;6.15;;;;;;;;;;5072560;28;20012;-83
2021/12/13 13:52:51;;;;;;;10.15;6.03;;;;;;;;;;5072638;28;20028;-90
2021/12/13 13:55:39;;;;;;;8.35;5.75;;;;;;;;;;5070447;28;20024;-83
2021/12/13 13:58:08;;;;;;;10.18;6.38;;;;;;;;;;5086960;28;20020;-83
2021/12/13 14:00:41;;;;;;;9.43;6.30;;;;;;;;;;5068470;28;20599;-84
2021/12/13 14:03:07;;;;;;;11.85;6.18;;;;;;;;;;5066722;28;20024;-83
2021/12/13 14:05:34;;;;;;;9.57;5.75;;;;;;;;;;5068112;28;20035;-90
2021/12/13 14:08:00;;;;;;;9.07;6.25;;;;;;;;;;5078213;28;20027;-81
2021/12/13 14:10:27;;;;;;;10.57;5.85;;;;;;;;;;5082082;28;20502;-82
2021/12/13 14:13:03;;;;;;;12.48;6.68;;;;;;;;;;5085863;28;20097;-83
2021/12/13 14:15:32;;;;;;;10.05;5.88;;;;;;;;;;5089839;28;20028;-84
2021/12/13 14:18:17;;;;;;;11.32;6.28;;;;;;;;;;5089389;28;20020;-81
2021/12/13 14:20:51;;;;;;;9.90;6.50;;;;;;;;;;5090203;28;20036;-84
2021/12/13 14:23:25;;;;;;;9.20;6.50;;;;;;;;;;5086380;28;20042;-90
2021/12/13 14:26:01;;;;;;;8.68;5.88;;;;;;;;;;5080034;28;20024;-83
2021/12/13 14:28:29;;;;;;;11.93;6.40;;;;;;;;;;5090621;28;20028;-83
2021/12/13 14:30:55;;;;;;;9.75;5.88;;;;;;;;;;5084588;28;20016;-81
2021/12/13 14:33:23;;;;;;;12.70;6.47;;;;;;;;;;5090058;28;20077;-83
2021/12/13 14:36:16;;;;;;;7.65;5.80;;;;;;;;;;5088210;28;20031;-84
2021/12/13 14:38:52;;;;;;;8.85;5.60;;;;;;;;;;5085699;28;20107;-87
2021/12/13 14:41:19;;;;;;;8.77;5.78;;;;;;;;;;5081944;28;20024;-83
2021/12/13 14:43:49;;;;;;;7.53;5.32;;;;;;;;;;5078910;28;20019;-88
2021/12/13 14:46:20;;;;;;;9.13;5.68;;;;;;;;;;5080699;28;20039;-82
2021/12/13 14:48:47;;;;;;;9.30;5.70;;;;;;;;;;5085022;28;20024;-81
2021/12/13 14:51:17;;;;;;;9.18;5.63;;;;;;;;;;5087274;28;20459;-84
2021/12/13 14:53:44;;;;;;;9.95;5.35;;;;;;;;;;5089882;28;20082;-83
2021/12/13 14:56:19;;;;;;;7.18;5.20;;;;;;;;;;5089701;28;20024;-84
2021/12/13 14:58:53;;;;;;;9.50;5.28;;;;;;;;;;5093688;28;20028;-84
2021/12/13 15:01:23;;;;;;;12.93;5.30;;;;;;;;;;5086805;28;20032;-89
2021/12/13 15:04:28;;;;;;;8.55;5.25;;;;;;;;;;5091999;28;20471;-83
2021/12/13 15:06:58;;;;;;;9.20;5.00;;;;;;;;;;5101585;28;20198;-83
2021/12/13 15:09:59;;;;;;;8.02;5.50;;;;;;;;;;5086603;28;20123;-82
2021/12/13 15:12:33;;;;;;;7.72;5.00;;;;;;;;;;5064527;28;20511;-84
2021/12/13 15:15:04;;;;;;;7.88;5.10;;;;;;;;;;5084375;28;20139;-84
2021/12/13 15:17:34;;;;;;;8.32;5.50;;;;;;;;;;5087233;28;20024;-82